Portada
METAR-TAF:

METAR-TAF

Aeroports :

Imperatriz, Maranhão, Brasil

latitud: 05-32S, longitud: 047-30W, altitud: 123 m

Observació

L'informe es va fer fa 1 hora i 23 minuts, a les 15:00 UTC
Vent 5 kt del Nord-Est
Temperatura 29°C
Humitat 66%
Pressió 1016 hPa
Visibilitat 10 km o més
Cel ennuvolat a una alçada de 1700 ft

METAR: SBIZ 171500Z 05005KT 9999 BKN017 29/22 Q1016

Hora: 13:23 (16:23 UTC)

Pronòstic

L'informe es va fer fa 7 hores i 53 minuts, a les 08:30 UTC
Pronòstic vàlid del 17 a les 12 UTC al 17 a les 24 UTC
Vent 5 kt del Sud/Sud-Est
Visibilitat 10 km o més
Núvols disperses a una alçada de 3000 ft
Evolucionant progressivament
l' 17 a les 17 UTC al 17 a les 19 UTC
Vent 5 kt del Sud
Escasses núvols a una alçada de 3000 ft

TAF: SBIZ 170830Z 1712/1724 15005KT 9999 SCT030 TN27/1712Z TX33/1718Z BECMG 1717/1719 18005KT FEW030 RMK PGY

Observacions i pronòstics meteorològics de més de 4000 aeroports (METAR i TAF).

Les estacions disponibles són els punts grocs i vermells al mapa.

Posi el ratolí al punt desitjat per veure el nom de l'estació.

Feu clic per veure les observacions i els pronòstics meteorològics.

Per canviar el mapa: feu clic els botons verds amb una creu de color negre per apropar; al botó verd amb un guió per allunyar la imatge; o en les fletxes verdes per a mapes adjacents.


METAR-TAF: